sensor_id;sensor_type;location;lat;lon;timestamp;P1;durP1;ratioP1;P2;durP2;ratioP2
52674;SDS011;38569;52.722;6.440;2023-03-01T00:01:22;23.50;;;17.17;;
52674;SDS011;38569;52.722;6.440;2023-03-01T00:03:50;22.42;;;14.52;;
52674;SDS011;38569;52.722;6.440;2023-03-01T00:06:16;24.90;;;17.08;;
52674;SDS011;38569;52.722;6.440;2023-03-01T00:08:42;25.63;;;16.00;;
52674;SDS011;38569;52.722;6.440;2023-03-01T00:13:44;24.00;;;15.80;;
52674;SDS011;38569;52.722;6.440;2023-03-01T00:16:14;26.60;;;17.95;;
52674;SDS011;38569;52.722;6.440;2023-03-01T00:18:50;24.20;;;17.67;;
52674;SDS011;38569;52.722;6.440;2023-03-01T00:21:16;22.85;;;16.38;;
52674;SDS011;38569;52.722;6.440;2023-03-01T00:23:42;22.25;;;16.30;;
52674;SDS011;38569;52.722;6.440;2023-03-01T00:26:09;26.05;;;17.90;;
52674;SDS011;38569;52.722;6.440;2023-03-01T00:28:37;29.33;;;17.10;;
52674;SDS011;38569;52.722;6.440;2023-03-01T00:31:04;25.88;;;17.90;;
52674;SDS011;38569;52.722;6.440;2023-03-01T00:33:29;29.38;;;18.67;;
52674;SDS011;38569;52.722;6.440;2023-03-01T00:35:57;28.40;;;17.90;;
52674;SDS011;38569;52.722;6.440;2023-03-01T00:38:23;24.35;;;16.33;;
52674;SDS011;38569;52.722;6.440;2023-03-01T00:40:49;27.42;;;18.73;;
52674;SDS011;38569;52.722;6.440;2023-03-01T00:43:15;32.67;;;19.77;;
52674;SDS011;38569;52.722;6.440;2023-03-01T00:45:40;37.70;;;18.80;;
52674;SDS011;38569;52.722;6.440;2023-03-01T00:48:06;29.38;;;18.85;;
52674;SDS011;38569;52.722;6.440;2023-03-01T00:50:32;30.45;;;17.67;;
52674;SDS011;38569;52.722;6.440;2023-03-01T00:52:57;27.52;;;18.05;;
52674;SDS011;38569;52.722;6.440;2023-03-01T00:55:23;30.95;;;17.92;;
52674;SDS011;38569;52.722;6.440;2023-03-01T00:57:50;27.15;;;17.95;;
52674;SDS011;38569;52.722;6.440;2023-03-01T01:00:16;24.23;;;18.10;;
52674;SDS011;38569;52.722;6.440;2023-03-01T01:02:43;26.10;;;17.33;;
52674;SDS011;38569;52.722;6.440;2023-03-01T01:05:08;22.58;;;16.83;;
52674;SDS011;38569;52.722;6.440;2023-03-01T01:07:35;25.77;;;17.70;;
52674;SDS011;38569;52.722;6.440;2023-03-01T01:10:01;30.80;;;18.38;;
52674;SDS011;38569;52.722;6.440;2023-03-01T01:12:26;25.73;;;18.08;;
52674;SDS011;38569;52.722;6.440;2023-03-01T01:14:52;30.15;;;18.55;;
52674;SDS011;38569;52.722;6.440;2023-03-01T01:17:18;27.52;;;17.80;;
52674;SDS011;38569;52.722;6.440;2023-03-01T01:19:43;27.67;;;19.23;;
52674;SDS011;38569;52.722;6.440;2023-03-01T01:22:09;28.65;;;18.88;;
52674;SDS011;38569;52.722;6.440;2023-03-01T01:24:35;32.90;;;21.17;;
52674;SDS011;38569;52.722;6.440;2023-03-01T01:27:01;25.20;;;18.17;;
52674;SDS011;38569;52.722;6.440;2023-03-01T01:29:26;26.23;;;17.38;;
52674;SDS011;38569;52.722;6.440;2023-03-01T01:31:52;28.27;;;17.45;;
52674;SDS011;38569;52.722;6.440;2023-03-01T01:34:19;23.75;;;16.92;;
52674;SDS011;38569;52.722;6.440;2023-03-01T01:36:50;26.55;;;17.10;;
52674;SDS011;38569;52.722;6.440;2023-03-01T01:39:19;24.30;;;16.92;;
52674;SDS011;38569;52.722;6.440;2023-03-01T01:41:46;32.22;;;19.73;;
52674;SDS011;38569;52.722;6.440;2023-03-01T01:46:46;32.35;;;20.23;;
52674;SDS011;38569;52.722;6.440;2023-03-01T01:49:54;34.70;;;20.23;;
52674;SDS011;38569;52.722;6.440;2023-03-01T01:52:20;36.20;;;20.13;;
52674;SDS011;38569;52.722;6.440;2023-03-01T01:54:52;40.25;;;19.30;;
52674;SDS011;38569;52.722;6.440;2023-03-01T01:57:23;31.23;;;19.02;;
52674;SDS011;38569;52.722;6.440;2023-03-01T01:59:53;36.67;;;21.10;;
52674;SDS011;38569;52.722;6.440;2023-03-01T02:02:24;39.90;;;23.42;;
52674;SDS011;38569;52.722;6.440;2023-03-01T02:04:52;33.33;;;21.08;;
52674;SDS011;38569;52.722;6.440;2023-03-01T02:07:26;35.72;;;20.65;;
52674;SDS011;38569;52.722;6.440;2023-03-01T02:09:52;29.48;;;20.30;;
52674;SDS011;38569;52.722;6.440;2023-03-01T02:12:19;36.03;;;22.33;;
52674;SDS011;38569;52.722;6.440;2023-03-01T02:14:48;47.30;;;20.13;;
52674;SDS011;38569;52.722;6.440;2023-03-01T02:17:20;60.17;;;25.30;;
52674;SDS011;38569;52.722;6.440;2023-03-01T02:19:50;134.02;;;32.10;;
52674;SDS011;38569;52.722;6.440;2023-03-01T02:22:24;186.32;;;39.60;;
52674;SDS011;38569;52.722;6.440;2023-03-01T02:24:57;245.52;;;42.83;;
52674;SDS011;38569;52.722;6.440;2023-03-01T02:27:36;425.45;;;56.88;;
52674;SDS011;38569;52.722;6.440;2023-03-01T02:30:14;271.25;;;44.30;;
52674;SDS011;38569;52.722;6.440;2023-03-01T02:32:40;213.10;;;43.03;;
52674;SDS011;38569;52.722;6.440;2023-03-01T02:35:12;333.70;;;56.40;;
52674;SDS011;38569;52.722;6.440;2023-03-01T02:37:41;506.90;;;78.00;;
52674;SDS011;38569;52.722;6.440;2023-03-01T02:40:09;199.20;;;34.17;;
52674;SDS011;38569;52.722;6.440;2023-03-01T02:42:57;195.40;;;36.72;;
52674;SDS011;38569;52.722;6.440;2023-03-01T02:45:24;218.88;;;44.40;;
52674;SDS011;38569;52.722;6.440;2023-03-01T02:47:53;212.05;;;39.08;;
52674;SDS011;38569;52.722;6.440;2023-03-01T02:53:01;217.93;;;44.42;;
52674;SDS011;38569;52.722;6.440;2023-03-01T02:55:41;131.75;;;28.10;;
52674;SDS011;38569;52.722;6.440;2023-03-01T02:58:07;164.82;;;38.85;;
52674;SDS011;38569;52.722;6.440;2023-03-01T03:00:37;137.73;;;34.63;;
52674;SDS011;38569;52.722;6.440;2023-03-01T03:03:11;203.77;;;44.03;;
52674;SDS011;38569;52.722;6.440;2023-03-01T03:05:42;185.98;;;44.35;;
52674;SDS011;38569;52.722;6.440;2023-03-01T03:08:08;86.80;;;28.65;;
52674;SDS011;38569;52.722;6.440;2023-03-01T03:10:35;107.43;;;29.15;;
52674;SDS011;38569;52.722;6.440;2023-03-01T03:13:04;106.63;;;34.03;;
52674;SDS011;38569;52.722;6.440;2023-03-01T03:15:32;73.65;;;28.52;;
52674;SDS011;38569;52.722;6.440;2023-03-01T03:18:01;70.55;;;29.52;;
52674;SDS011;38569;52.722;6.440;2023-03-01T03:20:28;40.67;;;27.20;;
52674;SDS011;38569;52.722;6.440;2023-03-01T03:22:55;47.15;;;26.38;;
52674;SDS011;38569;52.722;6.440;2023-03-01T03:25:23;37.42;;;25.02;;
52674;SDS011;38569;52.722;6.440;2023-03-01T03:27:49;37.22;;;25.02;;
52674;SDS011;38569;52.722;6.440;2023-03-01T03:30:22;38.13;;;25.15;;
52674;SDS011;38569;52.722;6.440;2023-03-01T03:32:52;32.00;;;22.35;;
52674;SDS011;38569;52.722;6.440;2023-03-01T03:35:28;37.78;;;25.15;;
52674;SDS011;38569;52.722;6.440;2023-03-01T03:37:56;38.20;;;24.65;;
52674;SDS011;38569;52.722;6.440;2023-03-01T03:40:40;31.58;;;22.10;;
52674;SDS011;38569;52.722;6.440;2023-03-01T03:43:12;30.20;;;21.25;;
52674;SDS011;38569;52.722;6.440;2023-03-01T03:45:46;24.27;;;18.95;;
52674;SDS011;38569;52.722;6.440;2023-03-01T03:48:13;28.48;;;21.08;;
52674;SDS011;38569;52.722;6.440;2023-03-01T03:50:40;26.30;;;19.52;;
52674;SDS011;38569;52.722;6.440;2023-03-01T03:53:07;27.60;;;19.13;;
52674;SDS011;38569;52.722;6.440;2023-03-01T03:55:35;24.08;;;18.35;;
52674;SDS011;38569;52.722;6.440;2023-03-01T03:58:04;25.92;;;19.38;;
52674;SDS011;38569;52.722;6.440;2023-03-01T04:00:41;36.15;;;22.50;;
52674;SDS011;38569;52.722;6.440;2023-03-01T04:03:08;189.55;;;31.00;;
52674;SDS011;38569;52.722;6.440;2023-03-01T04:05:35;127.60;;;25.98;;
52674;SDS011;38569;52.722;6.440;2023-03-01T04:08:01;105.65;;;28.60;;
52674;SDS011;38569;52.722;6.440;2023-03-01T04:10:31;28.30;;;20.42;;
52674;SDS011;38569;52.722;6.440;2023-03-01T04:13:01;29.52;;;21.27;;
52674;SDS011;38569;52.722;6.440;2023-03-01T04:15:28;26.02;;;19.23;;
52674;SDS011;38569;52.722;6.440;2023-03-01T04:17:55;23.85;;;17.60;;
52674;SDS011;38569;52.722;6.440;2023-03-01T04:20:26;24.38;;;18.52;;
52674;SDS011;38569;52.722;6.440;2023-03-01T04:22:58;23.92;;;18.33;;
52674;SDS011;38569;52.722;6.440;2023-03-01T04:25:36;29.05;;;20.17;;
52674;SDS011;38569;52.722;6.440;2023-03-01T04:28:03;32.88;;;22.35;;
52674;SDS011;38569;52.722;6.440;2023-03-01T04:30:29;30.80;;;20.88;;
52674;SDS011;38569;52.722;6.440;2023-03-01T04:32:54;29.55;;;21.05;;
52674;SDS011;38569;52.722;6.440;2023-03-01T04:35:20;31.55;;;21.73;;
52674;SDS011;38569;52.722;6.440;2023-03-01T04:37:46;32.90;;;22.67;;
52674;SDS011;38569;52.722;6.440;2023-03-01T04:40:11;33.97;;;22.95;;
52674;SDS011;38569;52.722;6.440;2023-03-01T04:42:40;34.33;;;21.83;;
52674;SDS011;38569;52.722;6.440;2023-03-01T04:45:07;36.25;;;22.67;;
52674;SDS011;38569;52.722;6.440;2023-03-01T04:47:46;34.53;;;23.80;;
52674;SDS011;38569;52.722;6.440;2023-03-01T04:50:14;33.28;;;22.67;;
52674;SDS011;38569;52.722;6.440;2023-03-01T04:52:42;31.98;;;22.63;;
52674;SDS011;38569;52.722;6.440;2023-03-01T04:55:09;28.05;;;20.88;;
52674;SDS011;38569;52.722;6.440;2023-03-01T04:57:35;29.23;;;21.23;;
52674;SDS011;38569;52.722;6.440;2023-03-01T05:00:01;29.45;;;20.48;;
52674;SDS011;38569;52.722;6.440;2023-03-01T05:02:45;27.40;;;19.50;;
52674;SDS011;38569;52.722;6.440;2023-03-01T05:05:34;28.25;;;18.80;;
52674;SDS011;38569;52.722;6.440;2023-03-01T05:08:03;25.38;;;18.40;;
52674;SDS011;38569;52.722;6.440;2023-03-01T05:10:33;24.27;;;17.80;;
52674;SDS011;38569;52.722;6.440;2023-03-01T05:13:01;25.35;;;19.23;;
52674;SDS011;38569;52.722;6.440;2023-03-01T05:15:29;22.98;;;18.15;;
52674;SDS011;38569;52.722;6.440;2023-03-01T05:17:57;23.23;;;17.88;;
52674;SDS011;38569;52.722;6.440;2023-03-01T05:20:25;23.92;;;18.27;;
52674;SDS011;38569;52.722;6.440;2023-03-01T05:22:52;26.63;;;19.02;;
52674;SDS011;38569;52.722;6.440;2023-03-01T05:25:20;24.17;;;17.48;;
52674;SDS011;38569;52.722;6.440;2023-03-01T05:27:46;26.67;;;19.00;;
52674;SDS011;38569;52.722;6.440;2023-03-01T05:30:13;26.63;;;19.80;;
52674;SDS011;38569;52.722;6.440;2023-03-01T05:32:43;25.23;;;19.42;;
52674;SDS011;38569;52.722;6.440;2023-03-01T05:35:10;28.10;;;19.90;;
52674;SDS011;38569;52.722;6.440;2023-03-01T05:37:45;27.92;;;20.95;;
52674;SDS011;38569;52.722;6.440;2023-03-01T05:40:13;27.95;;;20.17;;
52674;SDS011;38569;52.722;6.440;2023-03-01T05:42:55;25.55;;;18.92;;
52674;SDS011;38569;52.722;6.440;2023-03-01T05:45:22;23.63;;;17.20;;
52674;SDS011;38569;52.722;6.440;2023-03-01T05:47:49;24.05;;;18.23;;
52674;SDS011;38569;52.722;6.440;2023-03-01T05:50:20;23.42;;;18.00;;
52674;SDS011;38569;52.722;6.440;2023-03-01T05:52:51;23.67;;;18.23;;
52674;SDS011;38569;52.722;6.440;2023-03-01T05:55:24;26.52;;;20.27;;
52674;SDS011;38569;52.722;6.440;2023-03-01T05:57:51;27.48;;;18.02;;
52674;SDS011;38569;52.722;6.440;2023-03-01T06:00:18;25.27;;;18.70;;
52674;SDS011;38569;52.722;6.440;2023-03-01T06:02:47;26.83;;;19.25;;
52674;SDS011;38569;52.722;6.440;2023-03-01T06:05:12;26.17;;;19.70;;
52674;SDS011;38569;52.722;6.440;2023-03-01T06:07:39;25.00;;;18.63;;
52674;SDS011;38569;52.722;6.440;2023-03-01T06:10:05;24.73;;;18.25;;
52674;SDS011;38569;52.722;6.440;2023-03-01T06:12:32;23.13;;;17.67;;
52674;SDS011;38569;52.722;6.440;2023-03-01T06:15:02;25.38;;;18.75;;
52674;SDS011;38569;52.722;6.440;2023-03-01T06:17:29;23.48;;;18.13;;
52674;SDS011;38569;52.722;6.440;2023-03-01T06:19:56;24.08;;;17.73;;
52674;SDS011;38569;52.722;6.440;2023-03-01T06:22:23;26.40;;;18.42;;
52674;SDS011;38569;52.722;6.440;2023-03-01T06:24:48;24.30;;;18.55;;
52674;SDS011;38569;52.722;6.440;2023-03-01T06:27:14;22.80;;;17.98;;
52674;SDS011;38569;52.722;6.440;2023-03-01T06:29:40;22.90;;;16.67;;
52674;SDS011;38569;52.722;6.440;2023-03-01T06:32:06;21.83;;;16.52;;
52674;SDS011;38569;52.722;6.440;2023-03-01T06:34:33;25.73;;;17.00;;
52674;SDS011;38569;52.722;6.440;2023-03-01T06:36:59;21.08;;;16.50;;
52674;SDS011;38569;52.722;6.440;2023-03-01T06:39:24;22.75;;;16.23;;
52674;SDS011;38569;52.722;6.440;2023-03-01T06:41:52;23.70;;;16.70;;
52674;SDS011;38569;52.722;6.440;2023-03-01T06:44:18;20.90;;;16.33;;
52674;SDS011;38569;52.722;6.440;2023-03-01T06:46:43;20.63;;;17.17;;
52674;SDS011;38569;52.722;6.440;2023-03-01T06:49:09;21.85;;;16.98;;
52674;SDS011;38569;52.722;6.440;2023-03-01T06:51:35;25.15;;;18.52;;
52674;SDS011;38569;52.722;6.440;2023-03-01T06:54:02;28.20;;;20.20;;
52674;SDS011;38569;52.722;6.440;2023-03-01T06:56:31;24.88;;;19.50;;
52674;SDS011;38569;52.722;6.440;2023-03-01T06:58:57;25.55;;;18.98;;
52674;SDS011;38569;52.722;6.440;2023-03-01T07:01:23;25.05;;;19.05;;
52674;SDS011;38569;52.722;6.440;2023-03-01T07:03:49;42.67;;;20.73;;
52674;SDS011;38569;52.722;6.440;2023-03-01T07:06:14;30.67;;;18.80;;
52674;SDS011;38569;52.722;6.440;2023-03-01T07:08:40;26.88;;;18.60;;
52674;SDS011;38569;52.722;6.440;2023-03-01T07:11:06;28.23;;;19.75;;
52674;SDS011;38569;52.722;6.440;2023-03-01T07:13:32;28.20;;;21.35;;
52674;SDS011;38569;52.722;6.440;2023-03-01T07:15:57;27.58;;;19.15;;
52674;SDS011;38569;52.722;6.440;2023-03-01T07:18:23;30.23;;;19.45;;
52674;SDS011;38569;52.722;6.440;2023-03-01T07:20:49;30.38;;;19.50;;
52674;SDS011;38569;52.722;6.440;2023-03-01T07:23:15;25.40;;;18.40;;
52674;SDS011;38569;52.722;6.440;2023-03-01T07:25:40;28.40;;;20.10;;
52674;SDS011;38569;52.722;6.440;2023-03-01T07:28:07;28.13;;;18.40;;
52674;SDS011;38569;52.722;6.440;2023-03-01T07:30:33;25.67;;;19.65;;
52674;SDS011;38569;52.722;6.440;2023-03-01T07:32:59;26.27;;;18.70;;
52674;SDS011;38569;52.722;6.440;2023-03-01T07:35:25;28.20;;;19.20;;
52674;SDS011;38569;52.722;6.440;2023-03-01T07:37:52;31.88;;;21.42;;
52674;SDS011;38569;52.722;6.440;2023-03-01T07:40:18;35.55;;;23.75;;
52674;SDS011;38569;52.722;6.440;2023-03-01T07:42:43;35.00;;;22.92;;
52674;SDS011;38569;52.722;6.440;2023-03-01T07:45:09;30.75;;;21.73;;
52674;SDS011;38569;52.722;6.440;2023-03-01T07:47:36;38.97;;;25.23;;
52674;SDS011;38569;52.722;6.440;2023-03-01T07:50:02;46.17;;;28.65;;
52674;SDS011;38569;52.722;6.440;2023-03-01T07:52:29;45.92;;;28.17;;
52674;SDS011;38569;52.722;6.440;2023-03-01T07:54:55;46.75;;;29.23;;
52674;SDS011;38569;52.722;6.440;2023-03-01T07:57:21;47.28;;;30.27;;
52674;SDS011;38569;52.722;6.440;2023-03-01T07:59:48;45.75;;;28.95;;
52674;SDS011;38569;52.722;6.440;2023-03-01T08:02:13;46.47;;;31.83;;
52674;SDS011;38569;52.722;6.440;2023-03-01T08:04:40;46.28;;;30.58;;
52674;SDS011;38569;52.722;6.440;2023-03-01T08:07:07;47.47;;;30.65;;
52674;SDS011;38569;52.722;6.440;2023-03-01T08:09:36;45.80;;;30.02;;
52674;SDS011;38569;52.722;6.440;2023-03-01T08:12:02;46.63;;;28.92;;
52674;SDS011;38569;52.722;6.440;2023-03-01T08:14:30;46.63;;;27.17;;
52674;SDS011;38569;52.722;6.440;2023-03-01T08:16:56;43.78;;;28.80;;
52674;SDS011;38569;52.722;6.440;2023-03-01T08:19:22;40.65;;;26.90;;
52674;SDS011;38569;52.722;6.440;2023-03-01T08:21:48;40.03;;;27.88;;
52674;SDS011;38569;52.722;6.440;2023-03-01T08:24:14;33.03;;;24.30;;
52674;SDS011;38569;52.722;6.440;2023-03-01T08:26:39;38.15;;;26.08;;
52674;SDS011;38569;52.722;6.440;2023-03-01T08:29:05;37.45;;;25.55;;
52674;SDS011;38569;52.722;6.440;2023-03-01T08:31:36;32.53;;;22.33;;
52674;SDS011;38569;52.722;6.440;2023-03-01T08:34:07;41.22;;;25.10;;
52674;SDS011;38569;52.722;6.440;2023-03-01T08:36:35;42.40;;;30.00;;
52674;SDS011;38569;52.722;6.440;2023-03-01T08:39:03;41.30;;;26.88;;
52674;SDS011;38569;52.722;6.440;2023-03-01T08:41:29;36.53;;;24.92;;
52674;SDS011;38569;52.722;6.440;2023-03-01T08:43:55;37.15;;;23.33;;
52674;SDS011;38569;52.722;6.440;2023-03-01T08:46:27;37.00;;;23.08;;
52674;SDS011;38569;52.722;6.440;2023-03-01T08:48:57;31.33;;;23.85;;
52674;SDS011;38569;52.722;6.440;2023-03-01T08:51:23;33.25;;;21.15;;
52674;SDS011;38569;52.722;6.440;2023-03-01T08:53:50;28.05;;;20.05;;
52674;SDS011;38569;52.722;6.440;2023-03-01T08:56:16;30.52;;;21.10;;
52674;SDS011;38569;52.722;6.440;2023-03-01T08:58:47;28.60;;;20.63;;
52674;SDS011;38569;52.722;6.440;2023-03-01T09:01:14;27.77;;;20.33;;
52674;SDS011;38569;52.722;6.440;2023-03-01T09:03:41;27.65;;;19.55;;
52674;SDS011;38569;52.722;6.440;2023-03-01T09:06:08;26.52;;;19.13;;
52674;SDS011;38569;52.722;6.440;2023-03-01T09:08:38;31.92;;;18.95;;
52674;SDS011;38569;52.722;6.440;2023-03-01T09:11:06;29.35;;;18.02;;
52674;SDS011;38569;52.722;6.440;2023-03-01T09:13:33;22.50;;;16.63;;
52674;SDS011;38569;52.722;6.440;2023-03-01T09:16:00;23.20;;;17.27;;
52674;SDS011;38569;52.722;6.440;2023-03-01T09:18:27;21.05;;;14.85;;
52674;SDS011;38569;52.722;6.440;2023-03-01T09:20:54;25.75;;;14.88;;
52674;SDS011;38569;52.722;6.440;2023-03-01T09:23:36;20.30;;;14.50;;
52674;SDS011;38569;52.722;6.440;2023-03-01T09:26:05;20.55;;;13.50;;
52674;SDS011;38569;52.722;6.440;2023-03-01T09:28:38;18.83;;;11.68;;
52674;SDS011;38569;52.722;6.440;2023-03-01T09:31:06;18.23;;;10.38;;
52674;SDS011;38569;52.722;6.440;2023-03-01T09:33:32;12.68;;;7.38;;
52674;SDS011;38569;52.722;6.440;2023-03-01T09:36:05;9.00;;;7.60;;
52674;SDS011;38569;52.722;6.440;2023-03-01T09:38:32;11.75;;;8.07;;
52674;SDS011;38569;52.722;6.440;2023-03-01T09:40:59;9.35;;;5.43;;
52674;SDS011;38569;52.722;6.440;2023-03-01T09:43:43;9.90;;;6.47;;
52674;SDS011;38569;52.722;6.440;2023-03-01T09:46:12;9.05;;;5.40;;
52674;SDS011;38569;52.722;6.440;2023-03-01T09:48:46;9.52;;;5.50;;
52674;SDS011;38569;52.722;6.440;2023-03-01T09:51:32;10.35;;;5.43;;
52674;SDS011;38569;52.722;6.440;2023-03-01T09:54:00;10.30;;;6.55;;
52674;SDS011;38569;52.722;6.440;2023-03-01T09:56:36;6.30;;;4.50;;
52674;SDS011;38569;52.722;6.440;2023-03-01T09:59:30;7.38;;;4.90;;
52674;SDS011;38569;52.722;6.440;2023-03-01T10:02:26;9.25;;;4.68;;
52674;SDS011;38569;52.722;6.440;2023-03-01T10:11:19;8.13;;;5.07;;
52674;SDS011;38569;52.722;6.440;2023-03-01T10:16:28;9.38;;;6.25;;
52674;SDS011;38569;52.722;6.440;2023-03-01T10:18:58;6.70;;;5.68;;
52674;SDS011;38569;52.722;6.440;2023-03-01T10:21:27;7.90;;;4.80;;
52674;SDS011;38569;52.722;6.440;2023-03-01T10:23:57;6.22;;;4.55;;
52674;SDS011;38569;52.722;6.440;2023-03-01T10:29:13;5.35;;;4.10;;
52674;SDS011;38569;52.722;6.440;2023-03-01T10:31:44;6.68;;;3.83;;
52674;SDS011;38569;52.722;6.440;2023-03-01T10:34:16;5.40;;;3.78;;
52674;SDS011;38569;52.722;6.440;2023-03-01T10:36:45;6.32;;;3.90;;
52674;SDS011;38569;52.722;6.440;2023-03-01T10:39:16;8.68;;;4.53;;
52674;SDS011;38569;52.722;6.440;2023-03-01T10:42:04;6.25;;;4.45;;
52674;SDS011;38569;52.722;6.440;2023-03-01T10:49:51;8.57;;;3.72;;
52674;SDS011;38569;52.722;6.440;2023-03-01T10:52:23;5.82;;;4.00;;
52674;SDS011;38569;52.722;6.440;2023-03-01T10:54:59;7.97;;;4.07;;
52674;SDS011;38569;52.722;6.440;2023-03-01T10:57:30;5.50;;;3.70;;
52674;SDS011;38569;52.722;6.440;2023-03-01T11:03:03;7.63;;;4.05;;
52674;SDS011;38569;52.722;6.440;2023-03-01T11:05:37;6.45;;;4.00;;
52674;SDS011;38569;52.722;6.440;2023-03-01T11:11:13;7.45;;;4.45;;
52674;SDS011;38569;52.722;6.440;2023-03-01T11:13:56;6.30;;;4.57;;
52674;SDS011;38569;52.722;6.440;2023-03-01T11:21:39;6.78;;;4.20;;
52674;SDS011;38569;52.722;6.440;2023-03-01T11:24:34;6.22;;;4.28;;
52674;SDS011;38569;52.722;6.440;2023-03-01T11:27:23;5.22;;;4.18;;
52674;SDS011;38569;52.722;6.440;2023-03-01T11:30:05;8.23;;;4.75;;
52674;SDS011;38569;52.722;6.440;2023-03-01T11:32:45;6.85;;;5.20;;
52674;SDS011;38569;52.722;6.440;2023-03-01T11:48:50;10.93;;;5.43;;
52674;SDS011;38569;52.722;6.440;2023-03-01T11:54:30;8.05;;;3.92;;
52674;SDS011;38569;52.722;6.440;2023-03-01T12:00:14;6.93;;;5.72;;
52674;SDS011;38569;52.722;6.440;2023-03-01T12:07:59;5.43;;;4.30;;
52674;SDS011;38569;52.722;6.440;2023-03-01T12:10:33;7.68;;;5.05;;
52674;SDS011;38569;52.722;6.440;2023-03-01T12:19:24;7.53;;;4.97;;
52674;SDS011;38569;52.722;6.440;2023-03-01T12:24:51;9.15;;;6.35;;
52674;SDS011;38569;52.722;6.440;2023-03-01T12:27:41;9.70;;;6.57;;
52674;SDS011;38569;52.722;6.440;2023-03-01T12:36:31;9.68;;;6.68;;
52674;SDS011;38569;52.722;6.440;2023-03-01T12:47:50;10.50;;;6.45;;
52674;SDS011;38569;52.722;6.440;2023-03-01T12:50:42;8.82;;;5.38;;
52674;SDS011;38569;52.722;6.440;2023-03-01T12:53:24;11.40;;;6.15;;
52674;SDS011;38569;52.722;6.440;2023-03-01T12:55:52;8.50;;;6.85;;
52674;SDS011;38569;52.722;6.440;2023-03-01T12:58:41;8.40;;;4.82;;
52674;SDS011;38569;52.722;6.440;2023-03-01T13:04:12;8.52;;;5.70;;
52674;SDS011;38569;52.722;6.440;2023-03-01T13:06:56;5.45;;;3.95;;
52674;SDS011;38569;52.722;6.440;2023-03-01T13:09:51;7.15;;;5.20;;
52674;SDS011;38569;52.722;6.440;2023-03-01T13:17:52;7.32;;;5.03;;
52674;SDS011;38569;52.722;6.440;2023-03-01T13:20:20;9.75;;;5.95;;
52674;SDS011;38569;52.722;6.440;2023-03-01T13:36:10;9.00;;;6.88;;
52674;SDS011;38569;52.722;6.440;2023-03-01T13:39:01;10.40;;;7.18;;
52674;SDS011;38569;52.722;6.440;2023-03-01T13:52:21;7.55;;;5.00;;
52674;SDS011;38569;52.722;6.440;2023-03-01T13:54:52;9.95;;;5.47;;
52674;SDS011;38569;52.722;6.440;2023-03-01T13:57:24;8.88;;;4.90;;
52674;SDS011;38569;52.722;6.440;2023-03-01T13:59:55;12.88;;;6.65;;
52674;SDS011;38569;52.722;6.440;2023-03-01T14:02:21;7.03;;;5.65;;
52674;SDS011;38569;52.722;6.440;2023-03-01T14:04:55;12.55;;;6.85;;
52674;SDS011;38569;52.722;6.440;2023-03-01T14:07:23;9.57;;;7.00;;
52674;SDS011;38569;52.722;6.440;2023-03-01T14:09:53;8.25;;;5.45;;
52674;SDS011;38569;52.722;6.440;2023-03-01T14:17:59;9.18;;;6.15;;
52674;SDS011;38569;52.722;6.440;2023-03-01T14:20:31;9.23;;;6.75;;
52674;SDS011;38569;52.722;6.440;2023-03-01T14:23:01;9.95;;;6.47;;
52674;SDS011;38569;52.722;6.440;2023-03-01T14:28:14;10.40;;;7.63;;
52674;SDS011;38569;52.722;6.440;2023-03-01T14:30:56;12.50;;;6.68;;
52674;SDS011;38569;52.722;6.440;2023-03-01T14:33:30;10.30;;;6.82;;
52674;SDS011;38569;52.722;6.440;2023-03-01T14:36:08;16.85;;;8.60;;
52674;SDS011;38569;52.722;6.440;2023-03-01T14:38:36;9.05;;;5.75;;
52674;SDS011;38569;52.722;6.440;2023-03-01T14:41:06;9.95;;;6.95;;
52674;SDS011;38569;52.722;6.440;2023-03-01T14:44:00;9.68;;;7.28;;
52674;SDS011;38569;52.722;6.440;2023-03-01T14:46:30;11.77;;;7.88;;
52674;SDS011;38569;52.722;6.440;2023-03-01T14:49:10;11.85;;;7.57;;
52674;SDS011;38569;52.722;6.440;2023-03-01T14:51:37;10.65;;;7.18;;
52674;SDS011;38569;52.722;6.440;2023-03-01T14:54:21;11.68;;;7.10;;
52674;SDS011;38569;52.722;6.440;2023-03-01T14:56:52;11.70;;;6.78;;
52674;SDS011;38569;52.722;6.440;2023-03-01T14:59:21;12.85;;;7.97;;
52674;SDS011;38569;52.722;6.440;2023-03-01T15:01:48;10.75;;;7.78;;
52674;SDS011;38569;52.722;6.440;2023-03-01T15:04:16;15.50;;;9.05;;
52674;SDS011;38569;52.722;6.440;2023-03-01T15:06:43;11.43;;;7.97;;
52674;SDS011;38569;52.722;6.440;2023-03-01T15:09:14;9.93;;;7.30;;
52674;SDS011;38569;52.722;6.440;2023-03-01T15:11:43;12.32;;;8.05;;
52674;SDS011;38569;52.722;6.440;2023-03-01T15:17:35;11.15;;;7.53;;
52674;SDS011;38569;52.722;6.440;2023-03-01T15:20:02;11.75;;;8.88;;
52674;SDS011;38569;52.722;6.440;2023-03-01T15:22:29;19.63;;;7.78;;
52674;SDS011;38569;52.722;6.440;2023-03-01T15:24:55;13.55;;;9.43;;
52674;SDS011;38569;52.722;6.440;2023-03-01T15:27:22;13.55;;;8.35;;
52674;SDS011;38569;52.722;6.440;2023-03-01T15:29:54;14.75;;;9.60;;
52674;SDS011;38569;52.722;6.440;2023-03-01T15:38:01;15.02;;;10.00;;
52674;SDS011;38569;52.722;6.440;2023-03-01T15:40:27;17.30;;;10.10;;
52674;SDS011;38569;52.722;6.440;2023-03-01T15:42:57;15.55;;;10.27;;
52674;SDS011;38569;52.722;6.440;2023-03-01T15:45:25;12.25;;;8.45;;
52674;SDS011;38569;52.722;6.440;2023-03-01T15:47:53;13.13;;;8.65;;
52674;SDS011;38569;52.722;6.440;2023-03-01T15:50:30;17.35;;;9.73;;
52674;SDS011;38569;52.722;6.440;2023-03-01T15:52:59;12.40;;;8.70;;
52674;SDS011;38569;52.722;6.440;2023-03-01T15:55:30;19.23;;;9.38;;
52674;SDS011;38569;52.722;6.440;2023-03-01T16:00:59;12.75;;;8.45;;
52674;SDS011;38569;52.722;6.440;2023-03-01T16:03:24;12.15;;;8.27;;
52674;SDS011;38569;52.722;6.440;2023-03-01T16:05:50;14.23;;;9.23;;
52674;SDS011;38569;52.722;6.440;2023-03-01T16:08:17;11.50;;;8.48;;
52674;SDS011;38569;52.722;6.440;2023-03-01T16:10:43;13.77;;;9.85;;
52674;SDS011;38569;52.722;6.440;2023-03-01T16:13:10;16.25;;;9.60;;
52674;SDS011;38569;52.722;6.440;2023-03-01T16:15:42;11.18;;;8.57;;
52674;SDS011;38569;52.722;6.440;2023-03-01T16:18:08;12.30;;;9.35;;
52674;SDS011;38569;52.722;6.440;2023-03-01T16:20:36;12.73;;;8.77;;
52674;SDS011;38569;52.722;6.440;2023-03-01T16:23:03;16.55;;;8.73;;
52674;SDS011;38569;52.722;6.440;2023-03-01T16:25:31;11.55;;;7.75;;
52674;SDS011;38569;52.722;6.440;2023-03-01T16:27:58;13.43;;;8.27;;
52674;SDS011;38569;52.722;6.440;2023-03-01T16:30:26;10.48;;;8.07;;
52674;SDS011;38569;52.722;6.440;2023-03-01T16:32:52;12.40;;;8.73;;
52674;SDS011;38569;52.722;6.440;2023-03-01T16:35:19;13.77;;;9.35;;
52674;SDS011;38569;52.722;6.440;2023-03-01T16:37:46;16.77;;;9.13;;
52674;SDS011;38569;52.722;6.440;2023-03-01T16:40:17;13.25;;;9.10;;
52674;SDS011;38569;52.722;6.440;2023-03-01T16:42:51;16.48;;;10.38;;
52674;SDS011;38569;52.722;6.440;2023-03-01T16:45:18;17.80;;;10.43;;
52674;SDS011;38569;52.722;6.440;2023-03-01T16:47:44;17.58;;;10.40;;
52674;SDS011;38569;52.722;6.440;2023-03-01T16:50:10;13.73;;;9.93;;
52674;SDS011;38569;52.722;6.440;2023-03-01T16:52:36;16.48;;;10.65;;
52674;SDS011;38569;52.722;6.440;2023-03-01T16:55:03;17.48;;;10.98;;
52674;SDS011;38569;52.722;6.440;2023-03-01T16:57:33;17.50;;;11.77;;
52674;SDS011;38569;52.722;6.440;2023-03-01T16:59:59;14.73;;;10.38;;